Time;durP1;ratioP1;P1;durP2;ratioP2;P2;SDS_P1;SDS_P2;PMS_P1;PMS_P2;Temp;Humidity;BMP_temperature;BMP_pressure;BME280_temperature;BME280_humidity;BME280_pressure;Samples;Min_cycle;Max_cycle;Signal;HPM_P1;HPM_P2
2022/03/08 00:00:19;;;;;;;30.20;16.98;;;-3.50;99.90;;;;;;5053354;28;20106;-68
2022/03/08 00:02:44;;;;;;;29.95;17.40;;;-3.50;99.90;;;;;;5053785;28;20154;-67
2022/03/08 00:05:10;;;;;;;30.25;17.58;;;-3.60;99.90;;;;;;5052188;28;20066;-67
2022/03/08 00:07:36;;;;;;;30.77;17.15;;;-3.60;99.90;;;;;;5053706;28;20029;-68
2022/03/08 00:10:05;;;;;;;30.60;17.25;;;-3.60;99.90;;;;;;5053070;28;20471;-67
2022/03/08 00:12:30;;;;;;;28.38;16.50;;;-3.60;99.90;;;;;;5053747;28;20056;-67
2022/03/08 00:14:56;;;;;;;26.63;16.73;;;-3.60;99.90;;;;;;5052861;28;20029;-67
2022/03/08 00:17:22;;;;;;;30.35;17.30;;;-3.70;99.90;;;;;;5053392;28;20381;-66
2022/03/08 00:19:47;;;;;;;32.28;16.85;;;-3.70;99.90;;;;;;5053249;28;20034;-65
2022/03/08 00:22:13;;;;;;;30.95;16.75;;;-3.70;99.90;;;;;;5052825;28;20029;-66
2022/03/08 00:24:39;;;;;;;25.63;15.73;;;-3.70;99.90;;;;;;5053566;28;20049;-66
2022/03/08 00:27:05;;;;;;;27.63;15.77;;;-3.70;99.90;;;;;;5051957;28;20029;-66
2022/03/08 00:29:30;;;;;;;29.90;16.90;;;-3.70;99.90;;;;;;5052813;28;20116;-66
2022/03/08 00:31:56;;;;;;;28.60;16.25;;;-3.70;99.90;;;;;;5052475;28;20052;-65
2022/03/08 00:34:22;;;;;;;28.33;16.58;;;-3.70;99.90;;;;;;5053113;28;20033;-65
2022/03/08 00:36:48;;;;;;;27.05;15.35;;;-3.70;99.90;;;;;;5052224;28;20394;-66
2022/03/08 00:39:14;;;;;;;26.40;15.77;;;-3.70;99.90;;;;;;5051738;28;20058;-67
2022/03/08 00:41:39;;;;;;;25.45;15.18;;;-3.70;99.90;;;;;;5052117;28;20067;-68
2022/03/08 00:44:06;;;;;;;26.00;15.15;;;-3.60;99.90;;;;;;5050868;28;20040;-67
2022/03/08 00:46:32;;;;;;;30.52;16.08;;;-3.70;99.90;;;;;;5049511;28;20032;-67
2022/03/08 00:48:58;;;;;;;31.05;16.50;;;-3.70;99.90;;;;;;5050961;28;20028;-66
2022/03/08 00:51:25;;;;;;;28.77;16.00;;;-3.70;99.90;;;;;;5051649;28;20090;-67
2022/03/08 00:53:51;;;;;;;26.45;15.82;;;-3.80;99.90;;;;;;5051083;28;20111;-67
2022/03/08 00:56:17;;;;;;;30.95;16.08;;;-3.80;99.90;;;;;;5050981;28;20509;-66
2022/03/08 00:58:43;;;;;;;30.55;17.55;;;-3.80;99.90;;;;;;5051060;28;20099;-67
2022/03/08 01:01:08;;;;;;;27.63;15.88;;;-3.80;99.90;;;;;;5049930;28;20162;-67
2022/03/08 01:03:34;;;;;;;32.92;15.65;;;-3.80;99.90;;;;;;5050787;28;20033;-67
2022/03/08 01:09:23;;;;;;;25.02;14.15;;;-3.70;99.90;;;;;;5049243;28;20036;-66
2022/03/08 01:11:49;;;;;;;27.02;15.43;;;-3.70;99.90;;;;;;5050524;28;20025;-67
2022/03/08 01:14:15;;;;;;;24.35;14.77;;;-3.70;99.90;;;;;;5050133;28;20031;-67
2022/03/08 01:16:40;;;;;;;26.02;14.98;;;-3.80;99.90;;;;;;5049929;28;20108;-67
2022/03/08 01:19:06;;;;;;;29.27;15.57;;;-3.80;99.90;;;;;;5049751;28;20060;-67
2022/03/08 01:21:35;;;;;;;28.92;15.07;;;-3.90;99.90;;;;;;5050600;28;20445;-67
2022/03/08 01:24:02;;;;;;;28.58;15.55;;;-3.90;99.90;;;;;;5050161;28;20463;-67
2022/03/08 01:26:28;;;;;;;31.67;16.83;;;-4.00;99.90;;;;;;5050766;28;20524;-67
2022/03/08 01:28:53;;;;;;;25.02;15.13;;;-4.00;99.90;;;;;;5051468;28;20029;-66
2022/03/08 01:31:19;;;;;;;32.17;15.10;;;-4.00;99.90;;;;;;5052033;28;20021;-67
2022/03/08 01:33:44;;;;;;;29.40;14.98;;;-4.00;99.90;;;;;;5052052;28;20036;-67
2022/03/08 01:36:12;;;;;;;28.30;14.32;;;-4.10;99.90;;;;;;5051069;28;20636;-67
2022/03/08 01:38:37;;;;;;;26.52;14.23;;;-4.10;99.90;;;;;;5051873;28;20469;-67
2022/03/08 01:41:03;;;;;;;24.90;13.85;;;-4.10;99.90;;;;;;5051121;28;20074;-67
2022/03/08 01:43:29;;;;;;;30.13;14.90;;;-4.10;99.90;;;;;;5051932;28;20473;-67
2022/03/08 01:45:54;;;;;;;24.75;13.43;;;-4.10;99.90;;;;;;5051099;28;20089;-66
2022/03/08 01:48:20;;;;;;;24.60;13.50;;;-4.20;99.90;;;;;;5052108;28;20033;-67
2022/03/08 01:50:47;;;;;;;27.10;14.25;;;-4.20;99.90;;;;;;5052040;28;20029;-67
2022/03/08 01:53:13;;;;;;;27.48;14.02;;;-4.20;99.90;;;;;;5051011;28;20186;-67
2022/03/08 01:55:39;;;;;;;24.83;14.30;;;-4.30;99.90;;;;;;5052163;28;20122;-66
2022/03/08 01:58:05;;;;;;;29.92;15.63;;;-4.30;99.90;;;;;;5051139;28;20549;-67
2022/03/08 02:00:32;;;;;;;26.50;14.90;;;-4.30;99.90;;;;;;5050175;28;20056;-67
2022/03/08 02:02:59;;;;;;;26.98;15.32;;;-4.30;99.90;;;;;;5051389;28;20024;-66
2022/03/08 02:05:26;;;;;;;24.63;14.27;;;-4.30;99.90;;;;;;5051410;28;20434;-67
2022/03/08 02:07:53;;;;;;;28.17;15.23;;;-4.30;99.90;;;;;;5050747;28;20060;-66
2022/03/08 02:10:19;;;;;;;28.25;15.98;;;-4.20;99.90;;;;;;5051427;28;20446;-67
2022/03/08 02:12:44;;;;;;;28.25;15.90;;;-4.20;99.90;;;;;;5051742;28;20123;-67
2022/03/08 02:15:24;;;;;;;30.98;15.98;;;-4.20;99.90;;;;;;5050887;28;20036;-67
2022/03/08 02:17:51;;;;;;;32.20;17.17;;;-4.20;99.90;;;;;;5051472;28;20036;-67
2022/03/08 02:20:18;;;;;;;32.78;17.92;;;-4.10;99.90;;;;;;5051278;28;20021;-67
2022/03/08 02:22:47;;;;;;;35.38;18.23;;;-4.10;99.90;;;;;;5051638;28;20111;-67
2022/03/08 02:25:13;;;;;;;30.20;16.80;;;-4.20;99.90;;;;;;5050875;28;20029;-67
2022/03/08 02:27:44;;;;;;;25.38;15.80;;;-4.20;99.90;;;;;;5054108;28;20029;-67
2022/03/08 02:30:11;;;;;;;30.58;16.23;;;-4.20;99.90;;;;;;5054943;28;20781;-67
2022/03/08 02:32:37;;;;;;;26.75;14.50;;;-4.20;99.90;;;;;;5055381;28;20082;-67
2022/03/08 02:35:14;;;;;;;32.13;16.63;;;-4.30;99.90;;;;;;5054572;28;20031;-66
2022/03/08 02:38:00;;;;;;;32.92;17.48;;;-4.30;99.90;;;;;;5055391;28;20021;-67
2022/03/08 02:40:32;;;;;;;29.45;15.15;;;-4.40;99.90;;;;;;5055165;28;20087;-67
2022/03/08 02:42:58;;;;;;;34.17;17.23;;;-4.40;99.90;;;;;;5054683;28;20021;-67
2022/03/08 02:45:24;;;;;;;28.42;14.95;;;-4.40;99.90;;;;;;5055096;28;20083;-67
2022/03/08 02:47:50;;;;;;;29.50;16.30;;;-4.40;99.90;;;;;;5055309;28;20052;-67
2022/03/08 02:50:17;;;;;;;29.48;15.23;;;-4.30;99.90;;;;;;5054163;28;20048;-67
2022/03/08 02:52:45;;;;;;;31.25;16.30;;;-4.30;99.90;;;;;;5055102;28;20032;-68
2022/03/08 02:55:12;;;;;;;33.53;18.08;;;-4.30;99.90;;;;;;5054036;28;20666;-67
2022/03/08 02:57:38;;;;;;;31.55;16.95;;;-4.40;99.90;;;;;;5055476;28;20029;-67
2022/03/08 03:00:07;;;;;;;33.28;18.17;;;-4.40;99.90;;;;;;5053921;28;20045;-67
2022/03/08 03:02:33;;;;;;;31.88;17.13;;;-4.40;99.90;;;;;;5055122;28;20469;-67
2022/03/08 03:04:59;;;;;;;29.83;16.02;;;-4.40;99.90;;;;;;5054126;28;20124;-67
2022/03/08 03:07:25;;;;;;;29.52;16.63;;;-4.40;99.90;;;;;;5054774;28;20036;-66
2022/03/08 03:09:51;;;;;;;29.30;15.60;;;-4.40;99.90;;;;;;5054443;28;20033;-67
2022/03/08 03:12:17;;;;;;;32.55;16.13;;;-4.50;99.90;;;;;;5054121;28;20151;-66
2022/03/08 03:14:43;;;;;;;28.42;15.50;;;-4.50;99.90;;;;;;5054534;28;20451;-66
2022/03/08 03:17:09;;;;;;;26.35;15.63;;;-4.50;99.90;;;;;;5053711;28;20096;-66
2022/03/08 03:19:35;;;;;;;29.83;16.27;;;-4.40;99.90;;;;;;5054670;28;20108;-66
2022/03/08 03:22:02;;;;;;;31.33;17.05;;;-4.40;99.90;;;;;;5053917;28;20021;-66
2022/03/08 03:24:27;;;;;;;29.42;15.32;;;-4.40;99.90;;;;;;5054426;28;20033;-66
2022/03/08 03:26:53;;;;;;;30.75;15.35;;;-4.40;99.90;;;;;;5054120;28;20025;-66
2022/03/08 03:29:18;;;;;;;26.95;15.57;;;-4.40;99.90;;;;;;5053899;28;20048;-67
2022/03/08 03:31:44;;;;;;;28.27;15.65;;;-4.40;99.90;;;;;;5054478;28;20158;-67
2022/03/08 03:34:09;;;;;;;32.45;16.17;;;-4.40;99.90;;;;;;5053222;28;20036;-68
2022/03/08 03:36:36;;;;;;;26.67;15.07;;;-4.40;99.90;;;;;;5053901;28;20087;-67
2022/03/08 03:39:03;;;;;;;27.77;15.07;;;-4.40;99.90;;;;;;5052647;28;20131;-65
2022/03/08 03:41:28;;;;;;;28.33;15.93;;;-4.50;99.90;;;;;;5054022;28;20021;-66
2022/03/08 03:43:54;;;;;;;27.35;15.70;;;-4.50;99.90;;;;;;5053984;28;20170;-65
2022/03/08 03:46:19;;;;;;;29.83;16.05;;;-4.50;99.90;;;;;;5053218;28;20120;-67
2022/03/08 03:48:45;;;;;;;31.63;16.17;;;-4.50;99.90;;;;;;5053937;28;20025;-67
2022/03/08 03:51:11;;;;;;;29.15;16.85;;;-4.60;99.90;;;;;;5053202;28;20516;-66
2022/03/08 03:53:37;;;;;;;31.27;16.33;;;-4.60;99.90;;;;;;5054107;28;20435;-66
2022/03/08 03:56:02;;;;;;;28.60;15.10;;;-4.70;99.90;;;;;;5053177;28;20059;-66
2022/03/08 03:58:28;;;;;;;25.38;13.77;;;-4.70;99.90;;;;;;5053733;28;20025;-66
2022/03/08 04:00:54;;;;;;;27.85;14.52;;;-4.70;99.90;;;;;;5053838;28;20040;-66
2022/03/08 04:03:19;;;;;;;23.90;14.18;;;-4.70;99.90;;;;;;5053185;28;20033;-67
2022/03/08 04:05:45;;;;;;;23.58;13.77;;;-4.70;99.90;;;;;;5053153;28;20548;-67
2022/03/08 04:08:11;;;;;;;26.83;14.30;;;-4.70;99.90;;;;;;5053078;28;20029;-67
2022/03/08 04:10:37;;;;;;;26.77;14.52;;;-4.70;99.90;;;;;;5053532;28;20485;-67
2022/03/08 04:13:03;;;;;;;26.27;13.68;;;-4.70;99.90;;;;;;5053035;28;20017;-66
2022/03/08 04:15:29;;;;;;;24.42;13.95;;;-4.70;99.90;;;;;;5053618;28;20040;-66
2022/03/08 04:17:55;;;;;;;23.77;13.65;;;-4.80;99.90;;;;;;5052979;28;20033;-66
2022/03/08 04:20:20;;;;;;;25.60;13.93;;;-4.80;99.90;;;;;;5053165;28;20036;-67
2022/03/08 04:22:46;;;;;;;25.45;14.60;;;-4.80;99.90;;;;;;5053591;28;20029;-68
2022/03/08 04:25:12;;;;;;;22.63;13.18;;;-4.80;99.90;;;;;;5051952;28;20029;-67
2022/03/08 04:27:38;;;;;;;30.50;15.68;;;-4.80;99.90;;;;;;5053392;28;20103;-67
2022/03/08 04:30:06;;;;;;;24.85;14.27;;;-4.90;99.90;;;;;;5052736;28;20417;-67
2022/03/08 04:32:31;;;;;;;24.50;13.18;;;-4.90;99.90;;;;;;5053348;28;20075;-67
2022/03/08 04:34:57;;;;;;;24.52;13.38;;;-4.90;99.90;;;;;;5052783;28;20450;-66
2022/03/08 04:37:23;;;;;;;24.13;13.25;;;-4.90;99.90;;;;;;5052784;28;20024;-67
2022/03/08 04:39:48;;;;;;;25.77;13.77;;;-5.00;99.90;;;;;;5052385;28;20493;-67
2022/03/08 04:42:14;;;;;;;24.77;12.95;;;-5.00;99.90;;;;;;5052365;28;20024;-67
2022/03/08 04:44:40;;;;;;;24.25;13.90;;;-5.10;99.90;;;;;;5052879;28;20033;-67
2022/03/08 04:47:05;;;;;;;26.98;13.68;;;-5.10;99.90;;;;;;5052250;28;20029;-66
2022/03/08 04:49:31;;;;;;;26.70;13.50;;;-5.20;99.90;;;;;;5052744;28;20150;-66
2022/03/08 04:51:57;;;;;;;30.35;15.30;;;-5.20;99.90;;;;;;5051454;28;20029;-66
2022/03/08 04:54:22;;;;;;;36.58;16.80;;;-5.30;99.90;;;;;;5052708;28;20024;-67
2022/03/08 04:56:48;;;;;;;35.22;15.80;;;-5.20;99.90;;;;;;5052646;28;20029;-67
2022/03/08 04:59:14;;;;;;;30.77;15.13;;;-5.20;99.90;;;;;;5052025;28;20390;-66
2022/03/08 05:01:41;;;;;;;31.02;13.77;;;-5.20;99.90;;;;;;5052785;28;20160;-66
2022/03/08 05:04:06;;;;;;;31.42;15.50;;;-5.10;99.90;;;;;;5052101;28;20028;-67
2022/03/08 05:06:32;;;;;;;31.63;14.63;;;-5.10;99.90;;;;;;5052262;28;20028;-68
2022/03/08 05:08:58;;;;;;;27.42;13.63;;;-5.10;99.90;;;;;;5051399;28;20036;-67
2022/03/08 05:11:24;;;;;;;23.23;12.43;;;-5.10;99.90;;;;;;5051841;28;20393;-66
2022/03/08 05:13:50;;;;;;;26.17;13.15;;;-5.00;99.90;;;;;;5052564;28;20437;-66
2022/03/08 05:16:15;;;;;;;22.05;12.40;;;-5.00;99.90;;;;;;5051641;28;20028;-66
2022/03/08 05:18:41;;;;;;;26.33;12.40;;;-5.10;99.90;;;;;;5052521;28;20108;-66
2022/03/08 05:21:07;;;;;;;19.65;10.95;;;-5.10;99.90;;;;;;5051717;28;20449;-66
2022/03/08 05:23:32;;;;;;;22.40;11.57;;;-5.10;99.90;;;;;;5051985;28;20021;-67
2022/03/08 05:25:58;;;;;;;17.58;10.52;;;-5.10;99.90;;;;;;5051470;28;20041;-66
2022/03/08 05:28:24;;;;;;;18.63;10.73;;;-5.10;99.90;;;;;;5051801;28;20100;-66
2022/03/08 05:30:50;;;;;;;18.73;10.60;;;-5.10;99.90;;;;;;5052284;28;20059;-66
2022/03/08 05:33:16;;;;;;;18.25;9.90;;;-5.10;99.90;;;;;;5051370;28;20040;-66
2022/03/08 05:35:42;;;;;;;16.48;9.57;;;-5.10;99.90;;;;;;5051785;28;20405;-66
2022/03/08 05:38:08;;;;;;;17.27;9.77;;;-5.10;99.90;;;;;;5051041;28;20477;-66
2022/03/08 05:40:33;;;;;;;19.25;9.93;;;-5.00;99.90;;;;;;5052608;28;20041;-66
2022/03/08 05:43:01;;;;;;;16.98;9.13;;;-5.00;99.90;;;;;;5051293;28;20021;-66
2022/03/08 05:45:28;;;;;;;17.58;9.82;;;-5.00;99.90;;;;;;5051899;28;20029;-67
2022/03/08 05:47:54;;;;;;;19.10;8.88;;;-5.00;99.90;;;;;;5051955;28;20025;-67
2022/03/08 05:50:19;;;;;;;17.55;9.32;;;-5.00;99.90;;;;;;5051211;28;20021;-67
2022/03/08 05:52:45;;;;;;;16.30;9.20;;;-4.90;99.90;;;;;;5051636;28;20492;-67
2022/03/08 05:55:11;;;;;;;19.70;9.75;;;-4.90;99.90;;;;;;5051404;28;20036;-67
2022/03/08 05:57:36;;;;;;;16.70;9.80;;;-5.00;99.90;;;;;;5051488;28;20033;-68
2022/03/08 06:00:04;;;;;;;19.50;9.70;;;-5.00;99.90;;;;;;5051769;28;20045;-67
2022/03/08 06:02:30;;;;;;;18.67;10.10;;;-4.90;99.90;;;;;;5051559;28;20029;-68
2022/03/08 06:04:55;;;;;;;20.17;10.18;;;-4.90;99.90;;;;;;5052188;28;20388;-68
2022/03/08 06:07:21;;;;;;;17.83;9.02;;;-4.80;99.90;;;;;;5051499;28;20094;-68
2022/03/08 06:09:47;;;;;;;18.48;10.00;;;-4.70;99.90;;;;;;5051854;28;20037;-68
2022/03/08 06:12:13;;;;;;;22.42;9.27;;;-4.70;99.90;;;;;;5051230;28;20025;-67
2022/03/08 06:14:39;;;;;;;19.38;9.75;;;-4.70;99.90;;;;;;5051714;28;20371;-67
2022/03/08 06:17:06;;;;;;;16.75;9.18;;;-4.70;99.90;;;;;;5049714;28;20151;-67
2022/03/08 06:19:33;;;;;;;18.98;9.13;;;-4.70;99.90;;;;;;5051743;28;20110;-68
2022/03/08 06:21:58;;;;;;;15.93;8.63;;;-4.70;99.90;;;;;;5051490;28;20025;-67
2022/03/08 06:24:24;;;;;;;18.70;9.63;;;-4.70;99.90;;;;;;5051284;28;20500;-69
2022/03/08 06:26:49;;;;;;;21.50;10.85;;;-4.70;99.90;;;;;;5051265;28;20539;-69
2022/03/08 06:29:15;;;;;;;18.00;9.10;;;-4.70;99.90;;;;;;5050546;28;20029;-68
2022/03/08 06:31:41;;;;;;;18.90;10.27;;;-4.70;99.90;;;;;;5051427;28;20025;-68
2022/03/08 06:34:06;;;;;;;24.67;11.10;;;-4.70;99.90;;;;;;5051413;28;20091;-69
2022/03/08 06:36:33;;;;;;;23.77;10.88;;;-4.70;99.90;;;;;;5051153;28;20021;-69
2022/03/08 06:38:59;;;;;;;19.05;11.07;;;-4.70;99.90;;;;;;5051239;28;20111;-69
2022/03/08 06:41:26;;;;;;;24.42;11.43;;;-4.70;99.90;;;;;;5051145;28;20124;-70
2022/03/08 06:43:52;;;;;;;21.00;11.38;;;-4.60;99.90;;;;;;5051195;28;20154;-70
2022/03/08 06:46:17;;;;;;;25.50;11.93;;;-4.50;99.90;;;;;;5049393;28;20150;-72
2022/03/08 06:48:43;;;;;;;27.23;12.40;;;-4.40;99.90;;;;;;5051307;28;20063;-73
2022/03/08 06:51:09;;;;;;;28.50;13.30;;;-4.40;99.90;;;;;;5050840;28;20078;-73
2022/03/08 06:53:34;;;;;;;30.83;13.95;;;-4.30;99.90;;;;;;5052233;28;20021;-75
2022/03/08 06:56:00;;;;;;;28.83;12.68;;;-4.10;99.90;;;;;;5051425;28;20033;-73
2022/03/08 06:58:26;;;;;;;32.67;13.75;;;-4.00;99.90;;;;;;5050524;28;20025;-71
2022/03/08 07:00:52;;;;;;;31.08;13.70;;;-3.90;99.90;;;;;;5049676;28;20450;-68
2022/03/08 07:03:18;;;;;;;25.98;12.50;;;-3.80;99.90;;;;;;5071627;28;20028;-70
2022/03/08 07:05:46;;;;;;;22.90;12.38;;;-3.60;99.90;;;;;;5072029;28;20041;-69
2022/03/08 07:08:12;;;;;;;31.25;14.07;;;-3.50;99.90;;;;;;5056126;28;20575;-69
2022/03/08 07:10:37;;;;;;;25.40;12.30;;;-3.40;99.90;;;;;;5050714;28;20021;-70
2022/03/08 07:13:03;;;;;;;25.73;13.52;;;-3.30;99.90;;;;;;5050007;28;20044;-69
2022/03/08 07:15:29;;;;;;;33.72;15.73;;;-3.20;99.90;;;;;;5054288;28;20466;-70
2022/03/08 07:17:55;;;;;;;30.55;15.15;;;-3.10;99.90;;;;;;5054566;28;20029;-72
2022/03/08 07:20:20;;;;;;;24.25;12.38;;;-3.00;99.90;;;;;;5053683;28;20029;-72
2022/03/08 07:22:46;;;;;;;26.70;12.73;;;-2.90;99.90;;;;;;5053552;28;20029;-71
2022/03/08 07:25:13;;;;;;;29.35;13.23;;;-2.70;99.90;;;;;;5052619;28;20065;-71
2022/03/08 07:27:39;;;;;;;22.90;13.07;;;-2.60;99.90;;;;;;5054005;28;20051;-71
2022/03/08 07:30:06;;;;;;;27.15;12.80;;;-2.40;99.90;;;;;;5050632;28;20541;-69
2022/03/08 07:32:32;;;;;;;21.05;12.52;;;-2.20;99.90;;;;;;5053393;28;20090;-71
2022/03/08 07:34:58;;;;;;;24.95;12.00;;;-1.90;99.90;;;;;;5053857;28;20021;-71
2022/03/08 07:37:24;;;;;;;22.25;11.90;;;-1.70;99.90;;;;;;5052762;28;20605;-71
2022/03/08 07:39:49;;;;;;;19.38;11.00;;;-1.60;99.90;;;;;;5053985;28;20053;-73
2022/03/08 07:42:15;;;;;;;26.92;12.10;;;-1.40;99.90;;;;;;5053645;28;20025;-72
2022/03/08 07:44:40;;;;;;;19.80;11.30;;;-1.30;99.90;;;;;;5053757;28;20535;-71
2022/03/08 07:47:08;;;;;;;26.55;12.73;;;-1.10;98.70;;;;;;5053083;28;20074;-70
2022/03/08 07:49:34;;;;;;;20.95;11.20;;;-0.90;99.20;;;;;;5053888;28;20036;-72
2022/03/08 07:52:00;;;;;;;18.50;10.52;;;-0.80;98.90;;;;;;5053983;28;20032;-71
2022/03/08 07:54:26;;;;;;;20.45;11.55;;;-0.70;96.60;;;;;;5053177;28;20028;-71
2022/03/08 07:56:52;;;;;;;20.38;10.82;;;-0.50;95.20;;;;;;5053837;28;20458;-71
2022/03/08 07:59:17;;;;;;;19.38;10.50;;;-0.30;95.20;;;;;;5052734;28;20466;-70
2022/03/08 08:01:43;;;;;;;18.23;9.95;;;-0.30;94.50;;;;;;5063422;28;20025;-71
2022/03/08 08:04:09;;;;;;;20.33;10.98;;;-0.10;94.20;;;;;;5072604;28;20376;-71
2022/03/08 08:06:35;;;;;;;15.90;9.70;;;0.10;93.20;;;;;;5073756;28;20191;-71
2022/03/08 08:09:00;;;;;;;20.50;11.30;;;0.20;93.30;;;;;;5073316;28;20458;-70
2022/03/08 08:11:26;;;;;;;25.80;11.38;;;0.40;92.80;;;;;;5072421;28;20075;-71
2022/03/08 08:13:53;;;;;;;19.33;9.85;;;0.50;92.50;;;;;;5073423;28;20039;-71
2022/03/08 08:16:19;;;;;;;22.23;10.10;;;0.70;92.80;;;;;;5072358;28;20458;-71
2022/03/08 08:18:45;;;;;;;20.80;9.80;;;0.80;90.90;;;;;;5072654;28;20107;-72
2022/03/08 08:21:11;;;;;;;16.92;9.88;;;0.90;90.10;;;;;;5072162;28;20120;-71
2022/03/08 08:23:36;;;;;;;12.10;8.88;;;1.10;87.30;;;;;;5073124;28;20428;-71
2022/03/08 08:26:02;;;;;;;16.17;9.35;;;1.20;87.20;;;;;;5072780;28;20470;-71
2022/03/08 08:28:28;;;;;;;21.08;12.25;;;1.20;87.10;;;;;;5071372;28;20021;-71
2022/03/08 08:30:53;;;;;;;19.83;9.95;;;1.40;86.00;;;;;;5072626;28;20454;-71
2022/03/08 08:33:19;;;;;;;13.45;8.77;;;1.60;85.00;;;;;;5071755;28;20033;-71
2022/03/08 08:35:45;;;;;;;18.88;9.15;;;1.70;82.60;;;;;;5072808;28;20056;-71
2022/03/08 08:38:11;;;;;;;13.10;8.00;;;1.80;82.30;;;;;;5071795;28;20025;-71
2022/03/08 08:40:36;;;;;;;12.07;7.88;;;2.00;80.90;;;;;;5072886;28;20024;-71
2022/03/08 08:43:05;;;;;;;11.30;7.55;;;2.30;78.80;;;;;;5072549;28;20035;-71
2022/03/08 08:45:31;;;;;;;14.30;7.53;;;2.50;77.70;;;;;;5053144;28;20071;-72
2022/03/08 08:47:57;;;;;;;14.07;8.25;;;2.50;77.10;;;;;;5052509;28;20457;-71
2022/03/08 08:50:23;;;;;;;10.30;7.20;;;2.70;75.70;;;;;;5051586;28;20109;-71
2022/03/08 08:52:48;;;;;;;12.88;7.70;;;2.80;74.90;;;;;;5052670;28;20033;-72
2022/03/08 08:55:14;;;;;;;11.30;6.97;;;2.90;75.30;;;;;;5051788;28;20033;-71
2022/03/08 08:57:40;;;;;;;15.90;7.40;;;3.10;73.30;;;;;;5052371;28;20124;-72
2022/03/08 09:00:07;;;;;;;8.25;5.85;;;3.30;72.40;;;;;;5053178;28;20489;-70
2022/03/08 09:02:34;;;;;;;16.23;6.95;;;3.40;71.20;;;;;;5071447;28;20036;-72
2022/03/08 09:05:00;;;;;;;10.77;7.28;;;3.40;70.80;;;;;;5072566;28;20035;-72
2022/03/08 09:07:25;;;;;;;12.23;7.35;;;3.50;70.40;;;;;;5071724;28;20617;-72
2022/03/08 09:09:51;;;;;;;11.50;6.63;;;3.50;70.20;;;;;;5072535;28;20354;-72
2022/03/08 09:12:17;;;;;;;12.55;6.60;;;3.50;70.30;;;;;;5071445;28;20068;-72
2022/03/08 09:14:42;;;;;;;19.80;7.55;;;3.70;70.10;;;;;;5070909;28;20029;-72
2022/03/08 09:17:08;;;;;;;9.75;6.53;;;3.70;69.60;;;;;;5071260;28;20094;-71
2022/03/08 09:19:34;;;;;;;10.88;6.75;;;3.90;68.50;;;;;;5072134;28;20071;-72
2022/03/08 09:22:00;;;;;;;10.48;6.25;;;4.00;68.50;;;;;;5071951;28;20078;-72
2022/03/08 09:24:26;;;;;;;11.63;6.82;;;4.20;68.00;;;;;;5070972;28;20024;-72
2022/03/08 09:26:51;;;;;;;10.45;6.95;;;4.20;67.30;;;;;;5071330;28;20020;-72
2022/03/08 09:29:18;;;;;;;13.52;6.57;;;4.40;66.30;;;;;;5071460;28;20035;-72
2022/03/08 09:31:44;;;;;;;15.80;6.07;;;4.50;65.30;;;;;;5071267;28;20052;-71
2022/03/08 09:34:10;;;;;;;12.88;5.70;;;4.50;65.00;;;;;;5070549;28;20331;-70
2022/03/08 09:36:37;;;;;;;18.33;5.78;;;4.50;64.20;;;;;;5071657;28;20039;-70
2022/03/08 09:39:05;;;;;;;10.55;5.68;;;4.50;64.10;;;;;;5071569;28;20078;-70
2022/03/08 09:41:31;;;;;;;13.57;5.93;;;4.60;63.50;;;;;;5071590;28;20032;-70
2022/03/08 09:43:59;;;;;;;9.63;5.72;;;4.70;62.90;;;;;;5064430;28;20148;-70
2022/03/08 09:46:24;;;;;;;63.25;8.32;;;4.70;62.90;;;;;;5050605;28;20094;-71
2022/03/08 09:48:50;;;;;;;8.60;6.07;;;4.80;61.40;;;;;;5051697;28;20033;-70
2022/03/08 09:51:16;;;;;;;14.98;6.50;;;4.80;61.70;;;;;;5050656;28;20035;-70
2022/03/08 09:53:44;;;;;;;14.68;6.20;;;4.80;62.00;;;;;;5051552;28;20462;-70
2022/03/08 09:56:10;;;;;;;12.48;6.10;;;4.90;61.40;;;;;;5050792;28;20037;-70
2022/03/08 09:58:39;;;;;;;17.65;6.05;;;5.00;61.70;;;;;;5051259;28;20049;-71
2022/03/08 10:01:05;;;;;;;9.57;5.95;;;5.00;61.10;;;;;;5060512;28;20029;-70
2022/03/08 10:03:43;;;;;;;15.02;5.97;;;5.10;61.10;;;;;;5070704;28;20039;-72
2022/03/08 10:06:10;;;;;;;17.35;6.35;;;5.10;60.60;;;;;;5070805;28;20029;-70
2022/03/08 10:08:37;;;;;;;13.63;6.65;;;5.20;60.80;;;;;;5071442;28;20032;-71
2022/03/08 10:11:04;;;;;;;10.68;5.22;;;5.40;59.80;;;;;;5071367;28;20023;-72
2022/03/08 10:13:33;;;;;;;10.25;5.75;;;5.40;59.10;;;;;;5071026;28;20046;-71
2022/03/08 10:16:06;;;;;;;11.23;6.20;;;5.40;59.20;;;;;;5051183;28;20094;-71
2022/03/08 10:18:37;;;;;;;14.73;5.50;;;5.50;58.30;;;;;;5051066;28;20048;-71
2022/03/08 10:21:03;;;;;;;10.00;5.80;;;5.60;58.60;;;;;;5045314;28;20096;-70
2022/03/08 10:23:40;;;;;;;12.07;6.10;;;5.60;58.90;;;;;;5052165;28;20033;-71
2022/03/08 10:26:06;;;;;;;16.42;6.32;;;5.80;58.00;;;;;;5051649;28;20033;-70
2022/03/08 10:28:42;;;;;;;17.17;6.65;;;5.90;57.40;;;;;;5051192;28;20024;-71
2022/03/08 10:31:13;;;;;;;125.20;12.27;;;5.90;57.60;;;;;;5060384;28;20021;-69
2022/03/08 10:33:38;;;;;;;11.07;5.53;;;6.10;54.80;;;;;;5069047;28;20454;-70
2022/03/08 10:36:23;;;;;;;16.08;6.95;;;6.00;55.40;;;;;;5071292;28;20028;-70
2022/03/08 10:39:09;;;;;;;18.88;6.25;;;6.10;55.30;;;;;;5071104;28;20102;-70
2022/03/08 10:41:56;;;;;;;19.90;6.10;;;6.10;55.40;;;;;;5070982;28;20454;-70
2022/03/08 10:44:31;;;;;;;10.15;5.38;;;6.30;54.30;;;;;;5060419;28;20417;-70
2022/03/08 10:47:03;;;;;;;12.32;6.35;;;6.40;53.20;;;;;;5051064;28;20111;-71
2022/03/08 10:49:28;;;;;;;17.58;5.82;;;6.50;52.70;;;;;;5052431;28;20033;-70
2022/03/08 10:52:03;;;;;;;19.42;5.97;;;6.50;52.80;;;;;;5054972;28;20116;-70
2022/03/08 10:54:31;;;;;;;13.85;6.18;;;6.50;52.40;;;;;;5054059;28;20049;-70
2022/03/08 10:56:56;;;;;;;16.75;5.70;;;6.50;52.20;;;;;;5054573;28;20056;-70
2022/03/08 10:59:23;;;;;;;10.25;5.03;;;6.50;52.30;;;;;;5054150;28;20083;-70
2022/03/08 11:01:48;;;;;;;12.55;4.85;;;6.60;51.70;;;;;;5069980;28;20029;-71
2022/03/08 11:04:19;;;;;;;10.82;5.80;;;6.70;51.60;;;;;;5073387;28;20059;-70
2022/03/08 11:06:50;;;;;;;18.27;6.00;;;6.80;51.50;;;;;;5073470;28;20043;-70
2022/03/08 11:09:16;;;;;;;15.77;5.28;;;6.90;51.00;;;;;;5074423;28;20082;-71
2022/03/08 11:11:43;;;;;;;9.35;5.38;;;7.00;51.00;;;;;;5075153;28;20048;-71
2022/03/08 11:14:09;;;;;;;13.82;5.50;;;7.20;50.60;;;;;;5074366;28;20420;-72
2022/03/08 11:16:36;;;;;;;7.65;4.80;;;7.30;49.70;;;;;;5074523;28;20032;-71
2022/03/08 11:19:02;;;;;;;7.47;4.95;;;7.40;48.50;;;;;;5074269;28;20025;-71
2022/03/08 11:21:30;;;;;;;10.20;4.82;;;7.50;52.50;;;;;;5073655;28;20036;-72
2022/03/08 11:23:57;;;;;;;10.48;5.22;;;7.40;55.50;;;;;;5074324;28;20127;-71
2022/03/08 11:26:23;;;;;;;9.05;5.07;;;7.30;48.50;;;;;;5073337;28;20137;-71
2022/03/08 11:28:49;;;;;;;8.52;5.05;;;7.40;49.10;;;;;;5074413;28;20469;-71
2022/03/08 11:31:22;;;;;;;8.07;4.32;;;7.50;47.60;;;;;;5072073;28;20021;-70
2022/03/08 11:34:04;;;;;;;6.95;4.85;;;7.50;47.50;;;;;;5074100;28;20027;-70
2022/03/08 11:36:38;;;;;;;6.32;4.53;;;7.60;47.20;;;;;;5066953;28;20024;-70
2022/03/08 11:39:16;;;;;;;9.68;4.80;;;7.50;47.30;;;;;;5074911;28;20107;-70
2022/03/08 11:41:54;;;;;;;12.38;5.20;;;7.60;46.70;;;;;;5074358;28;20032;-70
2022/03/08 11:44:32;;;;;;;10.32;4.85;;;7.60;46.40;;;;;;5063328;28;20386;-71
2022/03/08 11:47:09;;;;;;;6.68;4.10;;;7.80;53.00;;;;;;5053871;28;20049;-70
2022/03/08 11:49:46;;;;;;;7.80;4.65;;;7.80;46.50;;;;;;5053796;28;20021;-70
2022/03/08 11:52:11;;;;;;;7.63;4.90;;;7.90;46.20;;;;;;5053016;28;20029;-69
2022/03/08 11:54:37;;;;;;;12.48;5.65;;;8.10;45.90;;;;;;5053631;28;20052;-72
2022/03/08 11:57:03;;;;;;;7.10;4.55;;;8.20;45.50;;;;;;5053636;28;20025;-70
2022/03/08 11:59:28;;;;;;;14.20;5.45;;;8.40;46.20;;;;;;5051924;28;20134;-70
2022/03/08 12:01:54;;;;;;;10.50;4.93;;;8.60;44.20;;;;;;5068767;28;20067;-70
2022/03/08 12:04:21;;;;;;;7.68;5.13;;;8.70;43.80;;;;;;5072365;28;20021;-70
2022/03/08 12:06:54;;;;;;;8.40;4.55;;;8.80;44.30;;;;;;5073168;28;20024;-70
2022/03/08 12:09:22;;;;;;;6.32;4.90;;;9.10;44.00;;;;;;5072354;28;20036;-70
2022/03/08 12:11:57;;;;;;;5.80;4.97;;;9.50;43.70;;;;;;5073834;28;20027;-71
2022/03/08 12:14:30;;;;;;;8.65;6.00;;;10.10;42.70;;;;;;5073175;28;20381;-70
2022/03/08 12:17:20;;;;;;;11.18;6.32;;;10.30;42.10;;;;;;5073185;28;20029;-71
2022/03/08 12:19:47;;;;;;;10.77;6.03;;;10.40;42.00;;;;;;5073328;28;20419;-71
2022/03/08 12:22:18;;;;;;;7.72;5.88;;;10.60;41.00;;;;;;5071960;28;20056;-70
2022/03/08 12:24:53;;;;;;;9.55;5.55;;;10.50;41.60;;;;;;5072982;28;20108;-71
2022/03/08 12:27:20;;;;;;;74.88;8.88;;;10.90;41.40;;;;;;5072647;28;20461;-71
2022/03/08 12:29:46;;;;;;;10.95;5.78;;;11.00;40.40;;;;;;5072892;28;20418;-72
2022/03/08 12:32:23;;;;;;;9.63;5.63;;;11.00;41.30;;;;;;5072062;28;20032;-70
2022/03/08 12:34:52;;;;;;;10.05;6.15;;;11.30;40.30;;;;;;5056805;28;20090;-71
2022/03/08 12:37:48;;;;;;;9.63;5.93;;;11.60;40.10;;;;;;5054408;28;20028;-71